createdAt,value
2017-08-31T00:00:07.345Z,20.00
2017-08-31T00:02:34.413Z,20.00
2017-08-31T00:05:01.144Z,19.80
2017-08-31T00:07:27.517Z,19.80
2017-08-31T00:09:53.855Z,19.80
2017-08-31T00:12:20.361Z,19.80
2017-08-31T00:14:46.687Z,19.80
2017-08-31T00:17:13.002Z,19.80
2017-08-31T00:19:39.336Z,20.00
2017-08-31T00:22:07.836Z,20.00
2017-08-31T00:24:34.153Z,19.90
2017-08-31T00:27:00.466Z,19.80
2017-08-31T00:29:26.792Z,19.90
2017-08-31T00:31:53.124Z,19.90
2017-08-31T00:34:19.485Z,19.90
2017-08-31T00:36:45.893Z,19.90
2017-08-31T00:39:12.218Z,19.90
2017-08-31T00:41:38.536Z,20.00
2017-08-31T00:44:05.099Z,20.00
2017-08-31T00:46:32.005Z,20.00
2017-08-31T00:48:58.578Z,20.00
2017-08-31T00:51:25.121Z,20.00
2017-08-31T00:53:51.702Z,20.00
2017-08-31T00:56:18.280Z,19.90
2017-08-31T00:58:44.869Z,19.90
2017-08-31T01:01:11.397Z,20.00
2017-08-31T01:03:37.977Z,20.00
2017-08-31T01:06:04.573Z,20.00
2017-08-31T01:08:30.904Z,19.90
2017-08-31T01:11:00.132Z,20.00
2017-08-31T01:13:26.456Z,20.00
2017-08-31T01:15:52.792Z,20.00
2017-08-31T01:18:21.276Z,20.00
2017-08-31T01:20:47.632Z,19.90
2017-08-31T01:23:13.996Z,19.90
2017-08-31T01:25:40.339Z,19.90
2017-08-31T01:28:07.316Z,19.80
2017-08-31T01:30:33.977Z,19.80
2017-08-31T01:33:00.574Z,19.90
2017-08-31T01:35:27.077Z,19.90
2017-08-31T01:37:53.657Z,19.90
2017-08-31T01:40:20.245Z,19.90
2017-08-31T01:42:46.824Z,19.80
2017-08-31T01:45:13.376Z,19.80
2017-08-31T01:47:45.894Z,19.90
2017-08-31T01:50:12.470Z,19.80
2017-08-31T01:52:39.056Z,19.60
2017-08-31T01:55:05.654Z,19.20
2017-08-31T01:57:32.238Z,19.40
2017-08-31T01:59:58.813Z,19.40
2017-08-31T02:02:25.382Z,19.40
2017-08-31T02:04:51.941Z,19.30
2017-08-31T02:07:18.492Z,19.20
2017-08-31T02:09:45.084Z,19.30
2017-08-31T02:12:11.613Z,19.20
2017-08-31T02:14:38.122Z,19.10
2017-08-31T02:17:04.661Z,19.00
2017-08-31T02:19:31.206Z,19.10
2017-08-31T02:21:57.542Z,19.10
2017-08-31T02:24:26.232Z,19.10
2017-08-31T02:26:52.560Z,19.00
2017-08-31T02:29:18.949Z,19.00
2017-08-31T02:31:45.321Z,19.00
2017-08-31T02:34:11.702Z,19.00
2017-08-31T02:36:38.110Z,19.00
2017-08-31T02:39:04.474Z,19.00
2017-08-31T02:41:30.804Z,19.00
2017-08-31T02:43:57.113Z,18.90
2017-08-31T02:46:23.435Z,19.00
2017-08-31T02:48:49.750Z,19.00
2017-08-31T02:51:16.071Z,18.90
2017-08-31T02:53:42.397Z,19.00
2017-08-31T02:56:08.713Z,18.90
2017-08-31T02:58:37.048Z,18.80
2017-08-31T03:01:03.556Z,18.70
2017-08-31T03:03:30.105Z,18.70
2017-08-31T03:05:56.661Z,18.60
2017-08-31T03:08:23.181Z,18.40
2017-08-31T03:10:49.681Z,18.40
2017-08-31T03:13:16.253Z,18.40
2017-08-31T03:15:42.798Z,18.30
2017-08-31T03:18:09.473Z,18.30
2017-08-31T03:20:35.988Z,18.10
2017-08-31T03:23:02.516Z,18.10
2017-08-31T03:25:28.953Z,18.10
2017-08-31T03:27:55.281Z,18.00
2017-08-31T03:30:21.612Z,17.90
2017-08-31T03:32:48.012Z,17.80
2017-08-31T03:35:14.344Z,17.70
2017-08-31T03:37:40.672Z,17.60
2017-08-31T03:40:06.995Z,17.60
2017-08-31T03:42:34.205Z,17.80
2017-08-31T03:45:00.743Z,17.50
2017-08-31T03:47:27.359Z,17.40
2017-08-31T03:49:53.892Z,17.40
2017-08-31T03:52:20.428Z,17.40
2017-08-31T03:54:46.965Z,17.40
2017-08-31T03:57:13.488Z,17.40
2017-08-31T03:59:40.061Z,17.40
2017-08-31T04:02:06.621Z,17.40
2017-08-31T04:04:33.168Z,17.40
2017-08-31T04:06:59.844Z,17.40
2017-08-31T04:09:26.378Z,17.40
2017-08-31T04:11:52.788Z,17.30
2017-08-31T04:14:19.133Z,17.30
2017-08-31T04:16:45.440Z,17.40
2017-08-31T04:19:11.811Z,17.30
2017-08-31T04:21:38.420Z,17.20
2017-08-31T04:24:04.959Z,17.20
2017-08-31T04:26:31.508Z,17.20
2017-08-31T04:28:58.013Z,16.80
2017-08-31T04:31:24.524Z,17.10
2017-08-31T04:33:51.224Z,17.00
2017-08-31T04:36:17.784Z,17.10
2017-08-31T04:38:44.362Z,17.10
2017-08-31T04:41:10.865Z,17.00
2017-08-31T04:43:37.388Z,17.00
2017-08-31T04:46:03.957Z,17.00
2017-08-31T04:48:30.292Z,16.90
2017-08-31T04:50:56.816Z,16.90
2017-08-31T04:53:23.261Z,16.70
2017-08-31T04:55:49.615Z,16.90
2017-08-31T04:58:16.018Z,16.80
2017-08-31T05:00:42.449Z,16.90
2017-08-31T05:03:08.805Z,16.90
2017-08-31T05:05:35.169Z,16.90
2017-08-31T05:08:01.512Z,16.90
2017-08-31T05:10:27.885Z,16.90
2017-08-31T05:12:54.267Z,16.90
2017-08-31T05:15:20.603Z,16.90
2017-08-31T05:17:47.196Z,16.90
2017-08-31T05:20:13.772Z,16.80
2017-08-31T05:22:40.352Z,16.80
2017-08-31T05:25:06.925Z,16.80
2017-08-31T05:27:33.608Z,16.80
2017-08-31T05:30:00.159Z,16.80
2017-08-31T05:32:26.612Z,16.70
2017-08-31T05:34:54.572Z,16.70
2017-08-31T05:37:20.919Z,16.70
2017-08-31T05:39:47.221Z,16.60
2017-08-31T05:42:13.549Z,16.50
2017-08-31T05:44:39.897Z,16.50
2017-08-31T05:47:06.236Z,16.50
2017-08-31T05:49:32.600Z,16.40
2017-08-31T05:52:01.093Z,16.40
2017-08-31T05:54:27.638Z,16.40
2017-08-31T05:56:57.299Z,16.20
2017-08-31T05:59:23.876Z,16.30
2017-08-31T06:01:51.819Z,16.10
2017-08-31T06:04:19.737Z,16.20
2017-08-31T06:06:46.291Z,16.20
2017-08-31T06:09:12.876Z,16.10
2017-08-31T06:11:39.464Z,16.10
2017-08-31T06:14:06.035Z,16.10
2017-08-31T06:16:33.558Z,16.10
2017-08-31T06:19:00.096Z,16.10
2017-08-31T06:21:26.633Z,16.10
2017-08-31T06:23:53.181Z,16.10
2017-08-31T06:26:19.859Z,16.00
2017-08-31T06:28:46.432Z,16.00
2017-08-31T06:31:13.017Z,16.10
2017-08-31T06:33:39.575Z,16.20
2017-08-31T06:36:09.113Z,16.00
2017-08-31T06:38:35.707Z,16.00
2017-08-31T06:41:02.369Z,16.00
2017-08-31T06:43:29.050Z,15.90
2017-08-31T06:45:55.464Z,16.00
2017-08-31T06:48:21.789Z,15.90
2017-08-31T06:50:50.265Z,15.90
2017-08-31T06:53:16.596Z,15.90
2017-08-31T06:55:42.931Z,15.80
2017-08-31T06:58:09.256Z,15.80
2017-08-31T07:00:35.668Z,15.80
2017-08-31T07:03:01.984Z,15.80
2017-08-31T07:05:28.289Z,15.70
2017-08-31T07:07:54.624Z,15.70
2017-08-31T07:10:20.988Z,15.70
2017-08-31T07:12:47.453Z,15.70
2017-08-31T07:15:13.769Z,15.70
2017-08-31T07:17:43.317Z,15.80
2017-08-31T07:20:09.716Z,15.80
2017-08-31T07:22:36.276Z,15.90
2017-08-31T07:25:02.854Z,15.90
2017-08-31T07:27:29.647Z,15.60
2017-08-31T07:29:56.309Z,15.90
2017-08-31T07:32:22.867Z,16.00
2017-08-31T07:34:51.671Z,16.00
2017-08-31T07:37:18.292Z,16.00
2017-08-31T07:39:44.880Z,16.00
2017-08-31T07:42:11.491Z,16.00
2017-08-31T07:44:38.031Z,16.00
2017-08-31T07:47:04.584Z,16.10
2017-08-31T07:49:30.898Z,16.00
2017-08-31T07:51:57.204Z,16.00
2017-08-31T07:54:23.525Z,16.10
2017-08-31T07:56:49.864Z,16.30
2017-08-31T07:59:19.359Z,16.30
2017-08-31T08:01:45.653Z,16.20
2017-08-31T08:04:12.749Z,16.10
2017-08-31T08:06:39.263Z,16.10
2017-08-31T08:09:05.788Z,16.10
2017-08-31T08:11:32.328Z,16.20
2017-08-31T08:14:04.969Z,16.20
2017-08-31T08:16:31.506Z,16.20
2017-08-31T08:18:58.056Z,16.20
2017-08-31T08:21:24.581Z,16.10
2017-08-31T08:23:51.173Z,16.10
2017-08-31T08:26:17.729Z,16.00
2017-08-31T08:28:48.416Z,16.10
2017-08-31T08:31:14.782Z,16.10
2017-08-31T08:33:41.329Z,16.10
2017-08-31T08:36:07.901Z,16.20
2017-08-31T08:38:34.466Z,16.10
2017-08-31T08:41:00.768Z,16.10
2017-08-31T08:43:27.296Z,16.20
2017-08-31T08:45:53.876Z,16.10
2017-08-31T08:48:20.962Z,16.10
2017-08-31T08:50:47.544Z,16.30
2017-08-31T08:53:14.057Z,16.20
2017-08-31T08:55:40.622Z,16.20
2017-08-31T08:58:07.185Z,16.20
2017-08-31T09:00:33.782Z,16.30
2017-08-31T09:03:00.326Z,16.40
2017-08-31T09:05:26.860Z,16.40
2017-08-31T09:07:53.396Z,16.40
2017-08-31T09:10:19.953Z,16.60
2017-08-31T09:12:46.485Z,16.60
2017-08-31T09:15:12.810Z,16.50
2017-08-31T09:17:39.353Z,16.60
2017-08-31T09:20:05.881Z,16.70
2017-08-31T09:22:32.435Z,16.80
2017-08-31T09:25:04.154Z,16.80
2017-08-31T09:27:30.733Z,16.70
2017-08-31T09:29:57.316Z,16.70
2017-08-31T09:32:23.896Z,16.90
2017-08-31T09:34:50.217Z,16.70
2017-08-31T09:37:16.533Z,16.70
2017-08-31T09:39:42.951Z,16.70
2017-08-31T09:42:09.265Z,16.60
2017-08-31T09:44:35.815Z,16.80
2017-08-31T09:47:02.373Z,16.70
2017-08-31T09:49:28.949Z,16.60
2017-08-31T09:51:55.589Z,16.70
2017-08-31T09:54:22.162Z,16.70
2017-08-31T09:56:48.704Z,16.80
2017-08-31T09:59:15.314Z,16.70
2017-08-31T10:01:42.088Z,16.70
2017-08-31T10:04:08.409Z,16.80
2017-08-31T10:06:36.291Z,16.90
2017-08-31T10:09:02.904Z,16.90
2017-08-31T10:11:29.485Z,17.00
2017-08-31T10:13:56.056Z,17.00
2017-08-31T10:16:22.644Z,17.00
2017-08-31T10:18:48.956Z,17.10
2017-08-31T10:21:15.305Z,17.10
2017-08-31T10:23:41.640Z,17.10
2017-08-31T10:26:11.274Z,17.00
2017-08-31T10:28:37.638Z,17.00
2017-08-31T10:31:04.238Z,17.00
2017-08-31T10:33:30.881Z,16.80
2017-08-31T10:35:57.467Z,16.80
2017-08-31T10:38:24.015Z,16.80
2017-08-31T10:40:50.364Z,16.80
2017-08-31T10:43:16.712Z,16.80
2017-08-31T10:45:46.504Z,16.90
2017-08-31T10:48:12.852Z,17.00
2017-08-31T10:50:39.213Z,17.10
2017-08-31T10:53:05.568Z,17.10
2017-08-31T10:55:31.913Z,17.10
2017-08-31T10:57:58.281Z,17.00
2017-08-31T11:00:24.824Z,17.00
2017-08-31T11:02:51.416Z,17.00
2017-08-31T11:05:17.972Z,17.00
2017-08-31T11:07:47.267Z,17.00
2017-08-31T11:10:13.836Z,16.90
2017-08-31T11:12:40.212Z,16.90
2017-08-31T11:15:06.765Z,17.00
2017-08-31T11:17:33.464Z,17.10
2017-08-31T11:20:00.037Z,16.90
2017-08-31T11:22:26.609Z,16.70
2017-08-31T11:24:53.180Z,16.70
2017-08-31T11:27:24.345Z,16.70
2017-08-31T11:29:50.902Z,16.60
2017-08-31T11:32:17.607Z,16.50
2017-08-31T11:34:43.921Z,16.50
2017-08-31T11:37:10.659Z,16.60
2017-08-31T11:39:37.137Z,16.80
2017-08-31T11:42:03.637Z,16.90
2017-08-31T11:44:30.156Z,16.90
2017-08-31T11:46:56.677Z,16.80
2017-08-31T11:49:22.995Z,16.80
2017-08-31T11:51:53.932Z,16.80
2017-08-31T11:54:20.443Z,16.80
2017-08-31T11:56:47.055Z,16.90
2017-08-31T11:59:13.589Z,17.10
2017-08-31T12:01:40.157Z,16.90
2017-08-31T12:04:06.699Z,16.90
2017-08-31T12:06:35.461Z,17.00
2017-08-31T12:09:02.079Z,17.00
2017-08-31T12:11:28.644Z,17.10
2017-08-31T12:13:55.185Z,17.20
2017-08-31T12:16:21.740Z,17.30
2017-08-31T12:18:48.293Z,17.30
2017-08-31T12:21:19.885Z,17.30
2017-08-31T12:23:46.441Z,17.50
2017-08-31T12:26:12.766Z,17.70
2017-08-31T12:28:39.075Z,17.70
2017-08-31T12:31:05.517Z,17.90
2017-08-31T12:33:31.842Z,17.80
2017-08-31T12:38:29.691Z,17.80
2017-08-31T12:40:56.014Z,17.90
2017-08-31T12:43:22.439Z,17.90
2017-08-31T12:45:48.752Z,18.00
2017-08-31T12:48:15.133Z,17.70
2017-08-31T12:50:41.481Z,17.90
2017-08-31T12:53:10.277Z,17.80
2017-08-31T12:55:36.697Z,17.80
2017-08-31T12:58:03.220Z,17.80
2017-08-31T13:00:29.767Z,17.90
2017-08-31T13:02:56.294Z,17.80
2017-08-31T13:05:22.845Z,17.90
2017-08-31T13:07:55.758Z,18.00
2017-08-31T13:10:22.300Z,17.90
2017-08-31T13:12:48.864Z,17.90
2017-08-31T13:15:15.436Z,18.00
2017-08-31T13:17:41.970Z,18.00
2017-08-31T13:20:08.536Z,18.10
2017-08-31T13:22:39.906Z,18.00
2017-08-31T13:25:06.402Z,18.00
2017-08-31T13:27:32.932Z,18.10
2017-08-31T13:29:59.475Z,18.00
2017-08-31T13:32:26.001Z,17.90
2017-08-31T13:34:52.338Z,18.00
2017-08-31T13:37:22.976Z,18.10
2017-08-31T13:39:49.313Z,18.20
2017-08-31T13:42:15.638Z,18.30
2017-08-31T13:44:41.958Z,18.30
2017-08-31T13:47:08.324Z,18.30
2017-08-31T13:49:34.665Z,18.30
2017-08-31T13:52:00.981Z,18.40
2017-08-31T13:54:30.872Z,18.20
2017-08-31T13:56:57.432Z,18.50
2017-08-31T13:59:24.035Z,18.50
2017-08-31T14:01:50.577Z,18.50
2017-08-31T14:04:17.109Z,18.70
2017-08-31T14:06:43.658Z,18.60
2017-08-31T14:09:10.203Z,18.60
2017-08-31T14:11:36.748Z,18.60
2017-08-31T14:14:03.380Z,18.70
2017-08-31T14:16:29.939Z,18.80
2017-08-31T14:18:56.392Z,18.90
2017-08-31T14:21:22.928Z,19.00
2017-08-31T14:23:49.494Z,19.00
2017-08-31T14:26:16.021Z,18.90
2017-08-31T14:28:42.588Z,18.70
2017-08-31T14:31:09.174Z,18.60
2017-08-31T14:33:35.747Z,18.40
2017-08-31T14:36:05.845Z,18.10
2017-08-31T14:38:33.200Z,17.90
2017-08-31T14:40:59.739Z,17.80
2017-08-31T14:43:26.304Z,17.60
2017-08-31T14:45:52.844Z,17.60
2017-08-31T14:48:19.446Z,17.60
2017-08-31T14:50:45.964Z,17.60
2017-08-31T14:53:15.329Z,17.70
2017-08-31T14:55:41.861Z,17.80
2017-08-31T14:58:08.528Z,17.60
2017-08-31T15:00:35.166Z,17.90
2017-08-31T15:03:23.732Z,18.10
2017-08-31T15:05:54.060Z,18.20
2017-08-31T15:08:23.858Z,18.20
2017-08-31T15:10:50.232Z,18.20
2017-08-31T15:13:16.568Z,18.30
2017-08-31T15:15:42.901Z,18.30
2017-08-31T15:18:09.236Z,18.30
2017-08-31T15:20:35.637Z,18.40
2017-08-31T15:23:02.939Z,18.40
2017-08-31T15:25:29.472Z,18.70
2017-08-31T15:27:56.153Z,18.50
2017-08-31T15:30:26.789Z,18.50
2017-08-31T15:32:53.285Z,18.40
2017-08-31T15:35:19.836Z,18.30
2017-08-31T15:37:46.453Z,18.20
2017-08-31T15:40:13.065Z,18.20
2017-08-31T15:42:39.700Z,18.30
2017-08-31T15:45:06.321Z,18.30
2017-08-31T15:47:32.974Z,18.40
2017-08-31T15:49:59.475Z,18.50
2017-08-31T15:52:25.992Z,18.40
2017-08-31T15:54:52.552Z,18.30
2017-08-31T15:57:19.169Z,18.30
2017-08-31T15:59:45.750Z,18.40
2017-08-31T16:02:12.373Z,18.40
2017-08-31T16:04:39.021Z,18.50
2017-08-31T16:07:05.779Z,18.50
2017-08-31T16:09:32.367Z,18.50
2017-08-31T16:11:58.932Z,18.50
2017-08-31T16:14:25.789Z,18.50
2017-08-31T16:16:52.408Z,18.50
2017-08-31T16:19:18.986Z,18.50
2017-08-31T16:21:45.530Z,18.30
2017-08-31T16:24:12.132Z,18.30
2017-08-31T16:26:38.715Z,18.10
2017-08-31T16:29:05.372Z,18.10
2017-08-31T16:31:31.933Z,18.10
2017-08-31T16:33:58.510Z,17.90
2017-08-31T16:36:25.386Z,18.40
2017-08-31T16:38:51.957Z,18.40
2017-08-31T16:41:18.271Z,18.30
2017-08-31T16:43:45.202Z,18.30
2017-08-31T16:46:12.237Z,18.20
2017-08-31T16:48:38.576Z,18.40
2017-08-31T16:51:04.953Z,18.30
2017-08-31T16:53:34.395Z,18.30
2017-08-31T16:56:00.875Z,18.30
2017-08-31T16:58:27.201Z,18.20
2017-08-31T17:00:53.570Z,18.20
2017-08-31T17:03:20.193Z,18.10
2017-08-31T17:05:47.543Z,17.90
2017-08-31T17:08:14.134Z,17.90
2017-08-31T17:10:40.668Z,18.00
2017-08-31T17:13:09.893Z,17.90
2017-08-31T17:15:36.693Z,18.00
2017-08-31T17:18:03.463Z,18.10
2017-08-31T17:20:30.001Z,18.00
2017-08-31T17:22:56.668Z,18.00
2017-08-31T17:25:23.229Z,17.90
2017-08-31T17:27:49.841Z,17.70
2017-08-31T17:30:16.416Z,17.70
2017-08-31T17:32:43.042Z,17.70
2017-08-31T17:35:09.681Z,17.50
2017-08-31T17:37:36.249Z,17.50
2017-08-31T17:40:02.789Z,17.40
2017-08-31T17:42:29.187Z,17.40
2017-08-31T17:44:55.544Z,17.00
2017-08-31T17:47:21.920Z,16.90
2017-08-31T17:49:48.478Z,16.50
2017-08-31T17:52:15.050Z,16.60
2017-08-31T17:54:41.625Z,16.50
2017-08-31T17:57:08.210Z,16.40
2017-08-31T17:59:34.789Z,16.20
2017-08-31T18:02:01.360Z,16.10
2017-08-31T18:04:27.888Z,16.00
2017-08-31T18:06:54.404Z,16.00
2017-08-31T18:09:21.043Z,15.90
2017-08-31T18:11:47.638Z,15.80
2017-08-31T18:14:14.278Z,15.70
2017-08-31T18:16:44.486Z,15.70
2017-08-31T18:19:11.164Z,15.70
2017-08-31T18:21:37.742Z,15.70
2017-08-31T18:24:04.219Z,15.60
2017-08-31T18:26:31.012Z,15.60
2017-08-31T18:28:58.095Z,15.50
2017-08-31T18:31:24.716Z,15.40
2017-08-31T18:33:51.316Z,15.40
2017-08-31T18:36:18.283Z,15.30
2017-08-31T18:38:44.852Z,15.20
2017-08-31T18:41:11.390Z,15.30
2017-08-31T18:43:37.948Z,15.20
2017-08-31T18:46:04.586Z,15.20
2017-08-31T18:48:31.133Z,15.20
2017-08-31T18:50:57.668Z,15.20
2017-08-31T18:53:23.967Z,15.10
2017-08-31T18:55:50.388Z,15.00
2017-08-31T18:58:16.696Z,15.00
2017-08-31T19:00:43.021Z,14.80
2017-08-31T19:03:09.472Z,14.80
2017-08-31T19:05:35.797Z,14.90
2017-08-31T19:08:02.192Z,14.90
2017-08-31T19:10:28.549Z,14.90
2017-08-31T19:12:54.912Z,14.90
2017-08-31T19:15:21.272Z,14.80
2017-08-31T19:17:47.672Z,14.80
2017-08-31T19:20:14.017Z,14.70
2017-08-31T19:22:40.435Z,14.70
2017-08-31T19:25:07.273Z,14.70
2017-08-31T19:27:33.809Z,14.70
2017-08-31T19:30:00.116Z,14.40
2017-08-31T19:32:27.100Z,14.70
2017-08-31T19:34:53.663Z,14.50
2017-08-31T19:37:20.221Z,14.60
2017-08-31T19:39:46.788Z,14.60
2017-08-31T19:42:13.468Z,14.60
2017-08-31T19:44:40.054Z,14.50
2017-08-31T19:47:07.527Z,14.40
2017-08-31T19:49:34.067Z,14.30
2017-08-31T19:52:00.715Z,14.40
2017-08-31T19:54:27.283Z,14.30
2017-08-31T19:56:53.805Z,14.30
2017-08-31T19:59:20.441Z,14.30
2017-08-31T20:01:46.972Z,14.20
2017-08-31T20:04:13.504Z,14.30
2017-08-31T20:06:40.077Z,14.20
2017-08-31T20:09:06.608Z,14.10
2017-08-31T20:11:33.468Z,14.10
2017-08-31T20:13:59.997Z,14.00
2017-08-31T20:16:26.868Z,14.00
2017-08-31T20:18:53.379Z,14.00
2017-08-31T20:21:20.135Z,14.00
2017-08-31T20:23:46.680Z,14.00
2017-08-31T20:26:13.262Z,13.90
2017-08-31T20:28:39.816Z,13.90
2017-08-31T20:31:06.403Z,13.90
2017-08-31T20:33:33.751Z,13.90
2017-08-31T20:36:00.325Z,13.80
2017-08-31T20:38:26.873Z,13.80
2017-08-31T20:40:53.402Z,13.70
2017-08-31T20:43:19.715Z,13.70
2017-08-31T20:45:46.026Z,13.60
2017-08-31T20:48:12.420Z,13.60
2017-08-31T20:50:39.799Z,13.60
2017-08-31T20:53:06.213Z,13.40
2017-08-31T20:55:33.515Z,13.40
2017-08-31T20:58:00.071Z,13.10
2017-08-31T21:00:26.432Z,13.50
2017-08-31T21:02:52.773Z,13.50
2017-08-31T21:05:19.147Z,13.50
2017-08-31T21:07:45.560Z,13.40
2017-08-31T21:10:11.887Z,13.30
2017-08-31T21:12:38.200Z,13.30
2017-08-31T21:15:06.107Z,13.30
2017-08-31T21:17:32.425Z,13.30
2017-08-31T21:19:58.965Z,13.30
2017-08-31T21:22:25.584Z,13.30
2017-08-31T21:24:52.136Z,13.30
2017-08-31T21:27:18.700Z,13.30
2017-08-31T21:29:45.331Z,13.20
2017-08-31T21:32:11.857Z,13.30
2017-08-31T21:34:38.383Z,13.30
2017-08-31T21:37:04.968Z,13.30
2017-08-31T21:39:31.429Z,13.20
2017-08-31T21:41:57.943Z,13.10
2017-08-31T21:44:24.466Z,13.10
2017-08-31T21:46:52.605Z,13.00
2017-08-31T21:49:19.145Z,13.00
2017-08-31T21:51:45.677Z,13.00
2017-08-31T21:54:13.208Z,12.90
2017-08-31T21:56:39.835Z,12.90
2017-08-31T21:59:06.448Z,12.90
2017-08-31T22:01:33.026Z,12.90
2017-08-31T22:03:59.525Z,12.90
2017-08-31T22:06:26.086Z,12.80
2017-08-31T22:08:52.627Z,12.80
2017-08-31T22:11:19.168Z,12.80
2017-08-31T22:13:45.834Z,12.80
2017-08-31T22:16:12.362Z,12.70
2017-08-31T22:18:39.021Z,12.70
2017-08-31T22:21:05.721Z,12.60
2017-08-31T22:23:32.097Z,12.60
2017-08-31T22:25:58.404Z,12.60
2017-08-31T22:28:24.716Z,12.60
2017-08-31T22:30:51.208Z,12.60
2017-08-31T22:33:17.623Z,12.50
2017-08-31T22:35:44.016Z,12.50
2017-08-31T22:38:10.329Z,12.50
2017-08-31T22:40:36.768Z,12.40
2017-08-31T22:43:03.228Z,12.40
2017-08-31T22:45:29.797Z,12.10
2017-08-31T22:47:56.145Z,12.30
2017-08-31T22:50:22.735Z,12.30
2017-08-31T22:52:49.256Z,12.20
2017-08-31T22:55:19.141Z,12.30
2017-08-31T22:57:55.540Z,12.30
2017-08-31T23:00:22.259Z,12.20
2017-08-31T23:02:49.940Z,12.20
2017-08-31T23:05:16.515Z,12.20
2017-08-31T23:07:43.057Z,12.20
2017-08-31T23:10:09.602Z,12.20
2017-08-31T23:12:36.166Z,12.30
2017-08-31T23:15:02.747Z,12.20
2017-08-31T23:17:29.305Z,12.20
2017-08-31T23:19:55.897Z,12.20
2017-08-31T23:22:22.613Z,12.20
2017-08-31T23:24:49.330Z,12.20
2017-08-31T23:27:15.940Z,12.10
2017-08-31T23:29:42.621Z,12.20
2017-08-31T23:32:09.205Z,12.20
2017-08-31T23:34:36.644Z,12.20
2017-08-31T23:37:03.244Z,12.10
2017-08-31T23:39:29.814Z,12.10
2017-08-31T23:41:56.379Z,12.00
2017-08-31T23:44:22.986Z,12.00
2017-08-31T23:46:50.101Z,12.00
2017-08-31T23:49:16.684Z,12.00
2017-08-31T23:51:43.236Z,12.10
2017-08-31T23:54:09.782Z,12.20
2017-08-31T23:56:36.314Z,12.10
2017-08-31T23:59:02.949Z,12.10
